sensor_id;sensor_type;location;lat;lon;timestamp;P1;durP1;ratioP1;P2;durP2;ratioP2
4274;SDS011;2151;50.988;11.068;2024-03-02T00:00:24;138.07;;;17.80;;
4274;SDS011;2151;50.988;11.068;2024-03-02T00:02:53;136.20;;;16.70;;
4274;SDS011;2151;50.988;11.068;2024-03-02T00:05:21;134.30;;;16.43;;
4274;SDS011;2151;50.988;11.068;2024-03-02T00:07:54;134.60;;;16.60;;
4274;SDS011;2151;50.988;11.068;2024-03-02T00:10:23;136.37;;;17.60;;
4274;SDS011;2151;50.988;11.068;2024-03-02T00:12:57;133.47;;;16.17;;
4274;SDS011;2151;50.988;11.068;2024-03-02T00:18:05;133.53;;;17.47;;
4274;SDS011;2151;50.988;11.068;2024-03-02T00:20:32;131.33;;;16.83;;
4274;SDS011;2151;50.988;11.068;2024-03-02T00:23:08;131.10;;;16.57;;
4274;SDS011;2151;50.988;11.068;2024-03-02T00:25:39;136.97;;;16.70;;
4274;SDS011;2151;50.988;11.068;2024-03-02T00:28:13;132.83;;;17.37;;
4274;SDS011;2151;50.988;11.068;2024-03-02T00:33:07;139.50;;;18.30;;
4274;SDS011;2151;50.988;11.068;2024-03-02T00:35:34;133.67;;;16.20;;
4274;SDS011;2151;50.988;11.068;2024-03-02T00:38:06;134.37;;;18.30;;
4274;SDS011;2151;50.988;11.068;2024-03-02T00:40:33;133.87;;;18.07;;
4274;SDS011;2151;50.988;11.068;2024-03-02T00:43:00;134.07;;;16.50;;
4274;SDS011;2151;50.988;11.068;2024-03-02T00:45:28;137.30;;;18.33;;
4274;SDS011;2151;50.988;11.068;2024-03-02T00:47:55;137.07;;;17.50;;
4274;SDS011;2151;50.988;11.068;2024-03-02T00:50:24;132.60;;;17.23;;
4274;SDS011;2151;50.988;11.068;2024-03-02T00:52:56;132.17;;;16.43;;
4274;SDS011;2151;50.988;11.068;2024-03-02T00:55:25;136.60;;;17.27;;
4274;SDS011;2151;50.988;11.068;2024-03-02T00:57:51;132.20;;;16.87;;
4274;SDS011;2151;50.988;11.068;2024-03-02T01:00:18;132.07;;;16.10;;
4274;SDS011;2151;50.988;11.068;2024-03-02T01:02:45;135.90;;;17.40;;
4274;SDS011;2151;50.988;11.068;2024-03-02T01:05:12;134.73;;;17.40;;
4274;SDS011;2151;50.988;11.068;2024-03-02T01:07:39;133.27;;;16.20;;
4274;SDS011;2151;50.988;11.068;2024-03-02T01:10:07;135.27;;;16.60;;
4274;SDS011;2151;50.988;11.068;2024-03-02T01:12:36;132.80;;;16.50;;
4274;SDS011;2151;50.988;11.068;2024-03-02T01:15:03;128.57;;;15.07;;
4274;SDS011;2151;50.988;11.068;2024-03-02T01:17:32;129.90;;;15.37;;
4274;SDS011;2151;50.988;11.068;2024-03-02T01:19:59;135.07;;;17.27;;
4274;SDS011;2151;50.988;11.068;2024-03-02T01:22:27;129.00;;;15.10;;
4274;SDS011;2151;50.988;11.068;2024-03-02T01:24:53;135.87;;;16.60;;
4274;SDS011;2151;50.988;11.068;2024-03-02T01:27:22;134.97;;;17.37;;
4274;SDS011;2151;50.988;11.068;2024-03-02T01:29:49;131.10;;;17.00;;
4274;SDS011;2151;50.988;11.068;2024-03-02T01:32:19;133.30;;;17.63;;
4274;SDS011;2151;50.988;11.068;2024-03-02T01:34:47;133.47;;;16.87;;
4274;SDS011;2151;50.988;11.068;2024-03-02T01:37:14;133.17;;;17.10;;
4274;SDS011;2151;50.988;11.068;2024-03-02T01:39:41;134.87;;;16.57;;
4274;SDS011;2151;50.988;11.068;2024-03-02T01:42:08;135.60;;;17.63;;
4274;SDS011;2151;50.988;11.068;2024-03-02T01:44:35;132.50;;;16.70;;
4274;SDS011;2151;50.988;11.068;2024-03-02T01:47:01;138.73;;;17.60;;
4274;SDS011;2151;50.988;11.068;2024-03-02T01:49:28;134.67;;;17.23;;
4274;SDS011;2151;50.988;11.068;2024-03-02T01:51:54;135.27;;;17.20;;
4274;SDS011;2151;50.988;11.068;2024-03-02T01:54:21;133.80;;;17.27;;
4274;SDS011;2151;50.988;11.068;2024-03-02T01:56:49;136.33;;;17.60;;
4274;SDS011;2151;50.988;11.068;2024-03-02T01:59:16;136.87;;;17.93;;
4274;SDS011;2151;50.988;11.068;2024-03-02T02:01:42;136.10;;;17.60;;
4274;SDS011;2151;50.988;11.068;2024-03-02T02:04:09;134.67;;;16.90;;
4274;SDS011;2151;50.988;11.068;2024-03-02T02:06:35;137.20;;;17.07;;
4274;SDS011;2151;50.988;11.068;2024-03-02T02:09:02;139.20;;;18.53;;
4274;SDS011;2151;50.988;11.068;2024-03-02T02:11:29;134.13;;;17.90;;
4274;SDS011;2151;50.988;11.068;2024-03-02T02:13:56;137.90;;;18.73;;
4274;SDS011;2151;50.988;11.068;2024-03-02T02:16:28;137.10;;;17.60;;
4274;SDS011;2151;50.988;11.068;2024-03-02T02:19:00;135.83;;;18.67;;
4274;SDS011;2151;50.988;11.068;2024-03-02T02:21:27;138.83;;;19.10;;
4274;SDS011;2151;50.988;11.068;2024-03-02T02:23:54;140.07;;;18.87;;
4274;SDS011;2151;50.988;11.068;2024-03-02T02:26:20;139.33;;;18.47;;
4274;SDS011;2151;50.988;11.068;2024-03-02T02:28:47;136.13;;;18.67;;
4274;SDS011;2151;50.988;11.068;2024-03-02T02:31:14;136.50;;;18.90;;
4274;SDS011;2151;50.988;11.068;2024-03-02T02:33:41;134.53;;;16.90;;
4274;SDS011;2151;50.988;11.068;2024-03-02T02:36:08;141.10;;;20.10;;
4274;SDS011;2151;50.988;11.068;2024-03-02T02:38:38;134.40;;;17.80;;
4274;SDS011;2151;50.988;11.068;2024-03-02T02:41:06;139.03;;;19.07;;
4274;SDS011;2151;50.988;11.068;2024-03-02T02:43:33;138.97;;;18.43;;
4274;SDS011;2151;50.988;11.068;2024-03-02T02:46:00;141.57;;;20.10;;
4274;SDS011;2151;50.988;11.068;2024-03-02T02:48:26;141.47;;;20.27;;
4274;SDS011;2151;50.988;11.068;2024-03-02T02:50:52;141.67;;;20.20;;
4274;SDS011;2151;50.988;11.068;2024-03-02T02:53:19;138.87;;;19.70;;
4274;SDS011;2151;50.988;11.068;2024-03-02T02:55:45;142.43;;;18.90;;
4274;SDS011;2151;50.988;11.068;2024-03-02T02:58:12;134.90;;;18.43;;
4274;SDS011;2151;50.988;11.068;2024-03-02T03:00:39;137.73;;;19.13;;
4274;SDS011;2151;50.988;11.068;2024-03-02T03:03:06;138.77;;;19.20;;
4274;SDS011;2151;50.988;11.068;2024-03-02T03:05:32;137.40;;;18.70;;
4274;SDS011;2151;50.988;11.068;2024-03-02T03:07:59;139.63;;;18.63;;
4274;SDS011;2151;50.988;11.068;2024-03-02T03:10:25;145.90;;;18.07;;
4274;SDS011;2151;50.988;11.068;2024-03-02T03:12:54;138.43;;;19.57;;
4274;SDS011;2151;50.988;11.068;2024-03-02T03:15:23;133.27;;;17.60;;
4274;SDS011;2151;50.988;11.068;2024-03-02T03:17:50;136.20;;;17.80;;
4274;SDS011;2151;50.988;11.068;2024-03-02T03:20:17;142.90;;;19.50;;
4274;SDS011;2151;50.988;11.068;2024-03-02T03:22:44;137.43;;;19.00;;
4274;SDS011;2151;50.988;11.068;2024-03-02T03:25:10;136.23;;;18.97;;
4274;SDS011;2151;50.988;11.068;2024-03-02T03:27:39;144.37;;;18.30;;
4274;SDS011;2151;50.988;11.068;2024-03-02T03:30:06;144.40;;;20.03;;
4274;SDS011;2151;50.988;11.068;2024-03-02T03:32:33;135.33;;;18.10;;
4274;SDS011;2151;50.988;11.068;2024-03-02T03:35:00;136.67;;;18.00;;
4274;SDS011;2151;50.988;11.068;2024-03-02T03:37:26;135.50;;;17.80;;
4274;SDS011;2151;50.988;11.068;2024-03-02T03:40:01;135.87;;;19.07;;
4274;SDS011;2151;50.988;11.068;2024-03-02T03:42:28;130.33;;;17.30;;
4274;SDS011;2151;50.988;11.068;2024-03-02T03:44:55;134.43;;;17.20;;
4274;SDS011;2151;50.988;11.068;2024-03-02T03:47:21;135.87;;;16.90;;
4274;SDS011;2151;50.988;11.068;2024-03-02T03:49:48;133.77;;;16.73;;
4274;SDS011;2151;50.988;11.068;2024-03-02T03:52:14;135.77;;;16.90;;
4274;SDS011;2151;50.988;11.068;2024-03-02T03:54:44;132.87;;;16.50;;
4274;SDS011;2151;50.988;11.068;2024-03-02T03:57:11;133.70;;;17.23;;
4274;SDS011;2151;50.988;11.068;2024-03-02T03:59:38;134.17;;;17.70;;
4274;SDS011;2151;50.988;11.068;2024-03-02T04:02:05;133.57;;;17.37;;
4274;SDS011;2151;50.988;11.068;2024-03-02T04:04:31;136.47;;;17.20;;
4274;SDS011;2151;50.988;11.068;2024-03-02T04:06:58;138.47;;;18.63;;
4274;SDS011;2151;50.988;11.068;2024-03-02T04:09:24;135.47;;;17.90;;
4274;SDS011;2151;50.988;11.068;2024-03-02T04:11:51;129.83;;;16.60;;
4274;SDS011;2151;50.988;11.068;2024-03-02T04:14:18;132.70;;;15.80;;
4274;SDS011;2151;50.988;11.068;2024-03-02T04:16:45;132.60;;;16.20;;
4274;SDS011;2151;50.988;11.068;2024-03-02T04:19:12;132.83;;;16.33;;
4274;SDS011;2151;50.988;11.068;2024-03-02T04:21:39;133.53;;;17.53;;
4274;SDS011;2151;50.988;11.068;2024-03-02T04:24:05;134.97;;;16.93;;
4274;SDS011;2151;50.988;11.068;2024-03-02T04:26:34;131.20;;;16.07;;
4274;SDS011;2151;50.988;11.068;2024-03-02T04:29:01;136.43;;;18.30;;
4274;SDS011;2151;50.988;11.068;2024-03-02T04:31:29;136.40;;;17.60;;
4274;SDS011;2151;50.988;11.068;2024-03-02T04:33:56;134.97;;;18.70;;
4274;SDS011;2151;50.988;11.068;2024-03-02T04:36:23;138.50;;;19.03;;
4274;SDS011;2151;50.988;11.068;2024-03-02T04:38:50;144.97;;;19.77;;
4274;SDS011;2151;50.988;11.068;2024-03-02T04:41:16;139.77;;;19.47;;
4274;SDS011;2151;50.988;11.068;2024-03-02T04:43:44;141.67;;;19.60;;
4274;SDS011;2151;50.988;11.068;2024-03-02T04:46:11;138.67;;;18.77;;
4274;SDS011;2151;50.988;11.068;2024-03-02T04:48:38;137.80;;;18.70;;
4274;SDS011;2151;50.988;11.068;2024-03-02T04:51:05;143.67;;;19.50;;
4274;SDS011;2151;50.988;11.068;2024-03-02T04:53:31;139.40;;;19.07;;
4274;SDS011;2151;50.988;11.068;2024-03-02T04:55:58;143.10;;;19.93;;
4274;SDS011;2151;50.988;11.068;2024-03-02T04:58:45;140.80;;;20.60;;
4274;SDS011;2151;50.988;11.068;2024-03-02T05:01:13;146.23;;;21.80;;
4274;SDS011;2151;50.988;11.068;2024-03-02T05:03:40;147.07;;;21.37;;
4274;SDS011;2151;50.988;11.068;2024-03-02T05:06:06;144.87;;;21.83;;
4274;SDS011;2151;50.988;11.068;2024-03-02T05:08:35;149.43;;;21.93;;
4274;SDS011;2151;50.988;11.068;2024-03-02T05:11:01;148.17;;;22.10;;
4274;SDS011;2151;50.988;11.068;2024-03-02T05:13:48;147.53;;;23.07;;
4274;SDS011;2151;50.988;11.068;2024-03-02T05:16:15;148.13;;;22.67;;
4274;SDS011;2151;50.988;11.068;2024-03-02T05:18:41;151.77;;;24.10;;
4274;SDS011;2151;50.988;11.068;2024-03-02T05:21:08;151.60;;;24.10;;
4274;SDS011;2151;50.988;11.068;2024-03-02T05:23:34;150.53;;;22.33;;
4274;SDS011;2151;50.988;11.068;2024-03-02T05:26:01;152.63;;;23.30;;
4274;SDS011;2151;50.988;11.068;2024-03-02T05:28:28;153.00;;;23.80;;
4274;SDS011;2151;50.988;11.068;2024-03-02T05:30:54;149.40;;;23.30;;
4274;SDS011;2151;50.988;11.068;2024-03-02T05:33:21;145.13;;;22.70;;
4274;SDS011;2151;50.988;11.068;2024-03-02T05:35:49;149.87;;;23.37;;
4274;SDS011;2151;50.988;11.068;2024-03-02T05:38:18;146.27;;;20.90;;
4274;SDS011;2151;50.988;11.068;2024-03-02T05:40:45;149.73;;;22.93;;
4274;SDS011;2151;50.988;11.068;2024-03-02T05:43:11;145.93;;;22.40;;
4274;SDS011;2151;50.988;11.068;2024-03-02T05:45:38;149.47;;;22.03;;
4274;SDS011;2151;50.988;11.068;2024-03-02T05:48:06;138.37;;;20.63;;
4274;SDS011;2151;50.988;11.068;2024-03-02T05:50:33;141.00;;;19.30;;
4274;SDS011;2151;50.988;11.068;2024-03-02T05:53:00;139.97;;;18.93;;
4274;SDS011;2151;50.988;11.068;2024-03-02T05:55:26;145.87;;;18.63;;
4274;SDS011;2151;50.988;11.068;2024-03-02T05:57:53;142.40;;;18.70;;
4274;SDS011;2151;50.988;11.068;2024-03-02T06:00:45;136.37;;;18.30;;
4274;SDS011;2151;50.988;11.068;2024-03-02T06:03:13;139.20;;;18.70;;
4274;SDS011;2151;50.988;11.068;2024-03-02T06:05:41;142.87;;;19.67;;
4274;SDS011;2151;50.988;11.068;2024-03-02T06:08:07;136.40;;;17.47;;
4274;SDS011;2151;50.988;11.068;2024-03-02T06:10:34;139.90;;;18.03;;
4274;SDS011;2151;50.988;11.068;2024-03-02T06:13:00;136.10;;;16.70;;
4274;SDS011;2151;50.988;11.068;2024-03-02T06:15:28;142.27;;;17.07;;
4274;SDS011;2151;50.988;11.068;2024-03-02T06:17:55;137.90;;;17.60;;
4274;SDS011;2151;50.988;11.068;2024-03-02T06:20:21;138.97;;;18.37;;
4274;SDS011;2151;50.988;11.068;2024-03-02T06:22:48;137.03;;;17.80;;
4274;SDS011;2151;50.988;11.068;2024-03-02T06:25:15;136.17;;;16.97;;
4274;SDS011;2151;50.988;11.068;2024-03-02T06:27:41;137.87;;;17.70;;
4274;SDS011;2151;50.988;11.068;2024-03-02T06:30:08;134.57;;;17.13;;
4274;SDS011;2151;50.988;11.068;2024-03-02T06:32:36;136.27;;;16.80;;
4274;SDS011;2151;50.988;11.068;2024-03-02T06:35:04;134.70;;;16.10;;
4274;SDS011;2151;50.988;11.068;2024-03-02T06:37:33;135.87;;;16.80;;
4274;SDS011;2151;50.988;11.068;2024-03-02T06:40:00;135.47;;;16.43;;
4274;SDS011;2151;50.988;11.068;2024-03-02T06:42:27;133.77;;;16.63;;
4274;SDS011;2151;50.988;11.068;2024-03-02T06:44:53;136.33;;;16.40;;
4274;SDS011;2151;50.988;11.068;2024-03-02T06:47:20;131.47;;;16.23;;
4274;SDS011;2151;50.988;11.068;2024-03-02T06:49:46;129.30;;;15.10;;
4274;SDS011;2151;50.988;11.068;2024-03-02T06:52:13;138.73;;;16.40;;
4274;SDS011;2151;50.988;11.068;2024-03-02T06:54:39;132.27;;;15.57;;
4274;SDS011;2151;50.988;11.068;2024-03-02T06:57:06;132.60;;;16.00;;
4274;SDS011;2151;50.988;11.068;2024-03-02T06:59:32;131.47;;;15.83;;
4274;SDS011;2151;50.988;11.068;2024-03-02T07:02:02;130.83;;;14.70;;
4274;SDS011;2151;50.988;11.068;2024-03-02T07:04:28;126.23;;;13.37;;
4274;SDS011;2151;50.988;11.068;2024-03-02T07:06:59;128.80;;;13.70;;
4274;SDS011;2151;50.988;11.068;2024-03-02T07:09:26;124.70;;;11.37;;
4274;SDS011;2151;50.988;11.068;2024-03-02T07:11:54;127.93;;;14.00;;
4274;SDS011;2151;50.988;11.068;2024-03-02T07:14:21;129.43;;;14.30;;
4274;SDS011;2151;50.988;11.068;2024-03-02T07:16:49;129.40;;;13.73;;
4274;SDS011;2151;50.988;11.068;2024-03-02T07:19:17;127.73;;;13.33;;
4274;SDS011;2151;50.988;11.068;2024-03-02T07:21:44;128.00;;;13.33;;
4274;SDS011;2151;50.988;11.068;2024-03-02T07:24:11;131.57;;;13.63;;
4274;SDS011;2151;50.988;11.068;2024-03-02T07:26:39;124.30;;;13.17;;
4274;SDS011;2151;50.988;11.068;2024-03-02T07:29:10;127.43;;;12.30;;
4274;SDS011;2151;50.988;11.068;2024-03-02T07:31:36;124.70;;;13.27;;
4274;SDS011;2151;50.988;11.068;2024-03-02T07:34:07;123.13;;;12.60;;
4274;SDS011;2151;50.988;11.068;2024-03-02T07:36:35;125.63;;;12.40;;
4274;SDS011;2151;50.988;11.068;2024-03-02T07:39:03;125.10;;;12.53;;
4274;SDS011;2151;50.988;11.068;2024-03-02T07:41:30;126.40;;;13.27;;
4274;SDS011;2151;50.988;11.068;2024-03-02T07:43:58;123.23;;;12.90;;
4274;SDS011;2151;50.988;11.068;2024-03-02T07:46:30;125.67;;;13.63;;
4274;SDS011;2151;50.988;11.068;2024-03-02T07:48:57;124.40;;;12.30;;
4274;SDS011;2151;50.988;11.068;2024-03-02T07:51:28;130.83;;;13.40;;
4274;SDS011;2151;50.988;11.068;2024-03-02T07:53:55;126.17;;;13.23;;
4274;SDS011;2151;50.988;11.068;2024-03-02T07:56:22;128.40;;;14.60;;
4274;SDS011;2151;50.988;11.068;2024-03-02T07:58:49;126.17;;;12.90;;
4274;SDS011;2151;50.988;11.068;2024-03-02T08:01:16;125.57;;;13.20;;
4274;SDS011;2151;50.988;11.068;2024-03-02T08:03:44;125.40;;;12.83;;
4274;SDS011;2151;50.988;11.068;2024-03-02T08:06:17;125.10;;;13.53;;
4274;SDS011;2151;50.988;11.068;2024-03-02T08:08:49;125.40;;;13.50;;
4274;SDS011;2151;50.988;11.068;2024-03-02T08:11:16;123.63;;;13.33;;
4274;SDS011;2151;50.988;11.068;2024-03-02T08:13:44;123.30;;;12.30;;
4274;SDS011;2151;50.988;11.068;2024-03-02T08:16:12;123.90;;;13.47;;
4274;SDS011;2151;50.988;11.068;2024-03-02T08:18:42;128.90;;;14.47;;
4274;SDS011;2151;50.988;11.068;2024-03-02T08:21:08;126.87;;;14.93;;
4274;SDS011;2151;50.988;11.068;2024-03-02T08:23:35;118.90;;;8.87;;
4274;SDS011;2151;50.988;11.068;2024-03-02T08:26:07;126.27;;;14.33;;
4274;SDS011;2151;50.988;11.068;2024-03-02T08:28:37;124.77;;;12.80;;
4274;SDS011;2151;50.988;11.068;2024-03-02T08:31:05;124.70;;;12.90;;
4274;SDS011;2151;50.988;11.068;2024-03-02T08:33:32;126.53;;;14.10;;
4274;SDS011;2151;50.988;11.068;2024-03-02T08:36:01;124.37;;;13.00;;
4274;SDS011;2151;50.988;11.068;2024-03-02T08:38:29;128.57;;;13.77;;
4274;SDS011;2151;50.988;11.068;2024-03-02T08:40:56;121.97;;;12.40;;
4274;SDS011;2151;50.988;11.068;2024-03-02T08:43:23;123.90;;;13.17;;
4274;SDS011;2151;50.988;11.068;2024-03-02T08:45:50;124.40;;;13.33;;
4274;SDS011;2151;50.988;11.068;2024-03-02T08:48:17;120.40;;;8.37;;
4274;SDS011;2151;50.988;11.068;2024-03-02T08:50:44;122.83;;;12.27;;
4274;SDS011;2151;50.988;11.068;2024-03-02T08:53:10;120.60;;;12.20;;
4274;SDS011;2151;50.988;11.068;2024-03-02T08:55:37;120.53;;;12.37;;
4274;SDS011;2151;50.988;11.068;2024-03-02T08:58:04;119.73;;;10.47;;
4274;SDS011;2151;50.988;11.068;2024-03-02T09:00:32;118.37;;;10.80;;
4274;SDS011;2151;50.988;11.068;2024-03-02T09:03:00;122.60;;;12.13;;
4274;SDS011;2151;50.988;11.068;2024-03-02T09:07:56;119.27;;;11.60;;
4274;SDS011;2151;50.988;11.068;2024-03-02T09:10:27;117.67;;;10.73;;
4274;SDS011;2151;50.988;11.068;2024-03-02T09:12:55;118.80;;;10.93;;
4274;SDS011;2151;50.988;11.068;2024-03-02T09:15:21;116.17;;;10.03;;
4274;SDS011;2151;50.988;11.068;2024-03-02T09:17:50;115.50;;;8.80;;
4274;SDS011;2151;50.988;11.068;2024-03-02T09:20:16;116.07;;;10.70;;
4274;SDS011;2151;50.988;11.068;2024-03-02T09:22:43;114.60;;;9.90;;
4274;SDS011;2151;50.988;11.068;2024-03-02T09:25:09;116.17;;;9.77;;
4274;SDS011;2151;50.988;11.068;2024-03-02T09:27:41;119.87;;;10.23;;
4274;SDS011;2151;50.988;11.068;2024-03-02T09:30:08;115.67;;;10.10;;
4274;SDS011;2151;50.988;11.068;2024-03-02T09:32:40;116.03;;;10.00;;
4274;SDS011;2151;50.988;11.068;2024-03-02T09:35:07;113.33;;;9.50;;
4274;SDS011;2151;50.988;11.068;2024-03-02T09:37:33;114.07;;;9.17;;
4274;SDS011;2151;50.988;11.068;2024-03-02T09:40:01;115.23;;;10.23;;
4274;SDS011;2151;50.988;11.068;2024-03-02T09:42:31;117.07;;;10.57;;
4274;SDS011;2151;50.988;11.068;2024-03-02T09:44:59;118.50;;;10.37;;
4274;SDS011;2151;50.988;11.068;2024-03-02T09:47:27;117.10;;;9.60;;
4274;SDS011;2151;50.988;11.068;2024-03-02T09:49:56;114.40;;;9.00;;
4274;SDS011;2151;50.988;11.068;2024-03-02T09:52:23;118.07;;;10.03;;
4274;SDS011;2151;50.988;11.068;2024-03-02T09:54:53;114.37;;;9.90;;
4274;SDS011;2151;50.988;11.068;2024-03-02T09:57:20;116.00;;;8.60;;
4274;SDS011;2151;50.988;11.068;2024-03-02T09:59:48;114.40;;;9.33;;
4274;SDS011;2151;50.988;11.068;2024-03-02T10:02:14;116.40;;;10.07;;
4274;SDS011;2151;50.988;11.068;2024-03-02T10:04:42;115.80;;;9.70;;
4274;SDS011;2151;50.988;11.068;2024-03-02T10:07:17;114.97;;;9.23;;
4274;SDS011;2151;50.988;11.068;2024-03-02T10:09:44;114.27;;;8.73;;
4274;SDS011;2151;50.988;11.068;2024-03-02T10:12:12;115.27;;;8.60;;
4274;SDS011;2151;50.988;11.068;2024-03-02T10:14:39;115.17;;;9.40;;
4274;SDS011;2151;50.988;11.068;2024-03-02T10:17:10;114.90;;;9.00;;
4274;SDS011;2151;50.988;11.068;2024-03-02T10:19:37;115.57;;;9.63;;
4274;SDS011;2151;50.988;11.068;2024-03-02T10:22:04;114.47;;;9.50;;
4274;SDS011;2151;50.988;11.068;2024-03-02T10:24:39;117.10;;;9.90;;
4274;SDS011;2151;50.988;11.068;2024-03-02T10:27:16;115.67;;;9.60;;
4274;SDS011;2151;50.988;11.068;2024-03-02T10:29:45;113.43;;;9.13;;
4274;SDS011;2151;50.988;11.068;2024-03-02T10:32:12;114.63;;;9.17;;
4274;SDS011;2151;50.988;11.068;2024-03-02T10:34:39;117.60;;;9.07;;
4274;SDS011;2151;50.988;11.068;2024-03-02T10:37:07;117.80;;;8.93;;
4274;SDS011;2151;50.988;11.068;2024-03-02T10:39:35;111.17;;;8.20;;
4274;SDS011;2151;50.988;11.068;2024-03-02T10:42:09;111.40;;;8.10;;
4274;SDS011;2151;50.988;11.068;2024-03-02T10:44:36;112.00;;;8.33;;
4274;SDS011;2151;50.988;11.068;2024-03-02T10:47:04;112.07;;;9.20;;
4274;SDS011;2151;50.988;11.068;2024-03-02T10:49:32;111.73;;;8.53;;
4274;SDS011;2151;50.988;11.068;2024-03-02T10:51:59;111.60;;;8.93;;
4274;SDS011;2151;50.988;11.068;2024-03-02T10:54:26;116.50;;;9.97;;
4274;SDS011;2151;50.988;11.068;2024-03-02T10:56:56;113.37;;;9.07;;
4274;SDS011;2151;50.988;11.068;2024-03-02T10:59:28;112.00;;;8.60;;
4274;SDS011;2151;50.988;11.068;2024-03-02T11:01:59;110.60;;;8.13;;
4274;SDS011;2151;50.988;11.068;2024-03-02T11:04:31;112.70;;;9.93;;
4274;SDS011;2151;50.988;11.068;2024-03-02T11:06:59;113.60;;;8.53;;
4274;SDS011;2151;50.988;11.068;2024-03-02T11:09:27;112.10;;;8.77;;
4274;SDS011;2151;50.988;11.068;2024-03-02T11:12:03;111.67;;;8.60;;
4274;SDS011;2151;50.988;11.068;2024-03-02T11:14:31;111.30;;;8.43;;
4274;SDS011;2151;50.988;11.068;2024-03-02T11:16:59;111.10;;;7.70;;
4274;SDS011;2151;50.988;11.068;2024-03-02T11:19:27;110.07;;;7.67;;
4274;SDS011;2151;50.988;11.068;2024-03-02T11:21:54;110.37;;;7.30;;
4274;SDS011;2151;50.988;11.068;2024-03-02T11:26:50;110.77;;;7.80;;
4274;SDS011;2151;50.988;11.068;2024-03-02T11:34:43;110.20;;;7.57;;
4274;SDS011;2151;50.988;11.068;2024-03-02T11:37:13;109.20;;;7.20;;
4274;SDS011;2151;50.988;11.068;2024-03-02T11:39:44;110.30;;;7.23;;
4274;SDS011;2151;50.988;11.068;2024-03-02T11:42:12;109.70;;;7.57;;
4274;SDS011;2151;50.988;11.068;2024-03-02T11:44:43;108.63;;;6.93;;
4274;SDS011;2151;50.988;11.068;2024-03-02T11:47:15;111.17;;;6.50;;
4274;SDS011;2151;50.988;11.068;2024-03-02T11:49:45;108.20;;;6.40;;
4274;SDS011;2151;50.988;11.068;2024-03-02T11:52:14;108.70;;;6.77;;
4274;SDS011;2151;50.988;11.068;2024-03-02T11:54:43;108.00;;;6.10;;
4274;SDS011;2151;50.988;11.068;2024-03-02T11:57:17;109.70;;;6.87;;
4274;SDS011;2151;50.988;11.068;2024-03-02T11:59:44;111.37;;;7.10;;
4274;SDS011;2151;50.988;11.068;2024-03-02T12:02:17;108.67;;;7.10;;
4274;SDS011;2151;50.988;11.068;2024-03-02T12:04:45;110.80;;;7.40;;
4274;SDS011;2151;50.988;11.068;2024-03-02T12:07:12;114.80;;;9.10;;
4274;SDS011;2151;50.988;11.068;2024-03-02T12:09:39;111.20;;;7.60;;
4274;SDS011;2151;50.988;11.068;2024-03-02T12:12:09;109.30;;;6.80;;
4274;SDS011;2151;50.988;11.068;2024-03-02T12:14:36;107.97;;;6.50;;
4274;SDS011;2151;50.988;11.068;2024-03-02T12:17:04;107.27;;;5.70;;
4274;SDS011;2151;50.988;11.068;2024-03-02T12:19:32;107.97;;;6.10;;
4274;SDS011;2151;50.988;11.068;2024-03-02T12:22:00;107.40;;;5.73;;
4274;SDS011;2151;50.988;11.068;2024-03-02T12:24:28;108.70;;;6.70;;
4274;SDS011;2151;50.988;11.068;2024-03-02T12:26:56;108.27;;;6.00;;
4274;SDS011;2151;50.988;11.068;2024-03-02T12:29:24;108.60;;;5.83;;
4274;SDS011;2151;50.988;11.068;2024-03-02T12:31:51;108.20;;;6.10;;
4274;SDS011;2151;50.988;11.068;2024-03-02T12:34:21;105.30;;;5.50;;
4274;SDS011;2151;50.988;11.068;2024-03-02T12:36:48;106.70;;;5.60;;
4274;SDS011;2151;50.988;11.068;2024-03-02T12:39:19;107.50;;;6.87;;
4274;SDS011;2151;50.988;11.068;2024-03-02T12:41:46;106.40;;;7.30;;
4274;SDS011;2151;50.988;11.068;2024-03-02T12:44:13;108.47;;;8.00;;
4274;SDS011;2151;50.988;11.068;2024-03-02T12:46:40;109.97;;;8.77;;
4274;SDS011;2151;50.988;11.068;2024-03-02T12:49:11;110.80;;;8.37;;
4274;SDS011;2151;50.988;11.068;2024-03-02T12:51:39;110.13;;;9.13;;
4274;SDS011;2151;50.988;11.068;2024-03-02T12:54:09;107.23;;;8.00;;
4274;SDS011;2151;50.988;11.068;2024-03-02T12:56:40;109.60;;;8.20;;
4274;SDS011;2151;50.988;11.068;2024-03-02T12:59:07;108.27;;;7.90;;
4274;SDS011;2151;50.988;11.068;2024-03-02T13:01:38;109.37;;;8.53;;
4274;SDS011;2151;50.988;11.068;2024-03-02T13:04:06;107.90;;;7.87;;
4274;SDS011;2151;50.988;11.068;2024-03-02T13:06:33;109.87;;;7.77;;
4274;SDS011;2151;50.988;11.068;2024-03-02T13:09:00;110.00;;;6.93;;
4274;SDS011;2151;50.988;11.068;2024-03-02T13:11:27;108.73;;;6.63;;
4274;SDS011;2151;50.988;11.068;2024-03-02T13:13:53;106.93;;;6.00;;
4274;SDS011;2151;50.988;11.068;2024-03-02T13:16:21;108.60;;;6.20;;
4274;SDS011;2151;50.988;11.068;2024-03-02T13:18:57;107.60;;;6.73;;
4274;SDS011;2151;50.988;11.068;2024-03-02T13:21:25;109.10;;;6.33;;
4274;SDS011;2151;50.988;11.068;2024-03-02T13:23:52;106.80;;;5.87;;
4274;SDS011;2151;50.988;11.068;2024-03-02T13:26:19;107.53;;;7.03;;
4274;SDS011;2151;50.988;11.068;2024-03-02T13:28:45;108.10;;;6.30;;
4274;SDS011;2151;50.988;11.068;2024-03-02T13:31:12;108.23;;;6.90;;
4274;SDS011;2151;50.988;11.068;2024-03-02T13:33:39;107.00;;;7.03;;
4274;SDS011;2151;50.988;11.068;2024-03-02T13:36:12;109.87;;;8.17;;
4274;SDS011;2151;50.988;11.068;2024-03-02T13:38:38;110.17;;;7.80;;
4274;SDS011;2151;50.988;11.068;2024-03-02T13:41:05;109.07;;;7.77;;
4274;SDS011;2151;50.988;11.068;2024-03-02T13:43:31;111.03;;;8.87;;
4274;SDS011;2151;50.988;11.068;2024-03-02T13:46:00;112.97;;;8.63;;
4274;SDS011;2151;50.988;11.068;2024-03-02T13:48:27;111.57;;;9.90;;
4274;SDS011;2151;50.988;11.068;2024-03-02T13:50:53;110.60;;;8.90;;
4274;SDS011;2151;50.988;11.068;2024-03-02T13:53:21;112.10;;;9.90;;
4274;SDS011;2151;50.988;11.068;2024-03-02T13:55:48;109.97;;;9.60;;
4274;SDS011;2151;50.988;11.068;2024-03-02T13:58:14;111.50;;;9.77;;
4274;SDS011;2151;50.988;11.068;2024-03-02T14:00:41;114.00;;;9.90;;
4274;SDS011;2151;50.988;11.068;2024-03-02T14:03:08;111.17;;;8.87;;
4274;SDS011;2151;50.988;11.068;2024-03-02T14:05:37;112.50;;;9.23;;
4274;SDS011;2151;50.988;11.068;2024-03-02T14:08:04;109.10;;;8.37;;
4274;SDS011;2151;50.988;11.068;2024-03-02T14:10:30;109.97;;;8.73;;
4274;SDS011;2151;50.988;11.068;2024-03-02T14:12:59;109.73;;;8.50;;
4274;SDS011;2151;50.988;11.068;2024-03-02T14:15:26;110.70;;;9.30;;
4274;SDS011;2151;50.988;11.068;2024-03-02T14:17:53;109.47;;;8.40;;
4274;SDS011;2151;50.988;11.068;2024-03-02T14:20:20;113.20;;;8.97;;
4274;SDS011;2151;50.988;11.068;2024-03-02T14:22:49;109.97;;;8.20;;
4274;SDS011;2151;50.988;11.068;2024-03-02T14:25:15;110.07;;;9.20;;
4274;SDS011;2151;50.988;11.068;2024-03-02T14:27:45;120.47;;;9.87;;
4274;SDS011;2151;50.988;11.068;2024-03-02T14:30:31;109.80;;;8.10;;
4274;SDS011;2151;50.988;11.068;2024-03-02T14:33:01;111.37;;;8.17;;
4274;SDS011;2151;50.988;11.068;2024-03-02T14:35:29;112.77;;;7.73;;
4274;SDS011;2151;50.988;11.068;2024-03-02T14:37:56;111.00;;;8.00;;
4274;SDS011;2151;50.988;11.068;2024-03-02T14:40:24;110.47;;;7.80;;
4274;SDS011;2151;50.988;11.068;2024-03-02T14:42:53;110.20;;;7.83;;
4274;SDS011;2151;50.988;11.068;2024-03-02T14:45:19;108.77;;;7.70;;